Karnak, Illinois
Current Conditions -  °F | °C
As of 9:35 PM on Saturday 22 Nov 2014 (Local Time) from KM30 Reporting Station
Scattered Clouds Scattered Clouds  
Wind Chill: 55°   Ceiling: Unl
Heat Index: 55°   Visibility: 10mi
Dew Point: 38°   Wind: 3mph
Humidity: 54%   Direction: 130°SE
Pressure: 29.99"   Gusts: NA
Location:  37.29°N, 88.98°W
Report Text: KM30 230335Z AUTO 13003KT 10SM SCT080 13/04 A2999 RMK AO2 T01270035
Loading
Personal Weather Stations






























Interactive Weather Map New forecast layout! Learn more

10-Day Weather Forecast

Advertisements
Track Severe Weather on mobile